createdAt,value
2023-05-27T00:00:37.673Z,15.33
2023-05-27T00:03:04.353Z,15.31
2023-05-27T00:05:30.996Z,15.26
2023-05-27T00:07:57.583Z,15.25
2023-05-27T00:10:24.193Z,15.24
2023-05-27T00:12:50.712Z,15.18
2023-05-27T00:15:18.665Z,15.13
2023-05-27T00:17:45.265Z,15.09
2023-05-27T00:20:14.006Z,15.08
2023-05-27T00:22:41.682Z,15.08
2023-05-27T00:25:08.855Z,15.06
2023-05-27T00:27:35.939Z,15.09
2023-05-27T00:30:03.865Z,15.12
2023-05-27T00:32:30.518Z,15.17
2023-05-27T00:34:57.082Z,15.20
2023-05-27T00:37:23.773Z,15.22
2023-05-27T00:39:50.427Z,15.23
2023-05-27T00:42:21.069Z,15.21
2023-05-27T00:44:47.633Z,15.16
2023-05-27T00:47:17.020Z,15.10
2023-05-27T00:49:44.195Z,15.06
2023-05-27T00:52:10.826Z,14.99
2023-05-27T00:54:37.668Z,14.94
2023-05-27T00:57:04.553Z,14.89
2023-05-27T00:59:31.355Z,14.83
2023-05-27T01:01:57.944Z,14.77
2023-05-27T01:04:26.253Z,14.72
2023-05-27T01:07:15.750Z,14.67
2023-05-27T01:10:07.105Z,14.62
2023-05-27T01:12:56.336Z,14.59
2023-05-27T01:15:24.688Z,14.58
2023-05-27T01:17:55.704Z,14.58
2023-05-27T01:20:22.540Z,14.62
2023-05-27T01:22:53.307Z,14.69
2023-05-27T01:25:23.012Z,14.73
2023-05-27T01:27:49.843Z,14.74
2023-05-27T01:30:16.654Z,14.76
2023-05-27T01:33:18.946Z,14.73
2023-05-27T01:35:59.241Z,14.70
2023-05-27T01:38:28.914Z,14.65
2023-05-27T01:40:56.601Z,14.62
2023-05-27T01:43:23.691Z,14.53
2023-05-27T01:45:50.722Z,14.48
2023-05-27T01:48:17.627Z,14.39
2023-05-27T01:50:44.163Z,14.31
2023-05-27T01:53:11.584Z,14.22
2023-05-27T01:55:38.191Z,14.18
2023-05-27T01:58:04.858Z,14.15
2023-05-27T02:00:31.417Z,14.12
2023-05-27T02:02:58.044Z,14.02
2023-05-27T02:05:24.778Z,13.96
2023-05-27T02:07:51.380Z,13.92
2023-05-27T02:10:18.007Z,13.86
2023-05-27T02:12:44.502Z,13.82
2023-05-27T02:15:11.386Z,13.76
2023-05-27T02:17:38.966Z,13.72
2023-05-27T02:20:06.536Z,13.64
2023-05-27T02:22:33.131Z,13.58
2023-05-27T02:24:59.672Z,13.52
2023-05-27T02:27:26.194Z,13.43
2023-05-27T02:29:52.951Z,13.38
2023-05-27T02:32:19.508Z,13.31
2023-05-27T02:34:46.092Z,13.27
2023-05-27T02:37:12.647Z,13.22
2023-05-27T02:39:39.977Z,13.13
2023-05-27T02:42:07.437Z,13.12
2023-05-27T02:44:34.000Z,13.06
2023-05-27T02:47:00.677Z,12.99
2023-05-27T02:49:27.214Z,12.95
2023-05-27T02:51:53.718Z,12.90
2023-05-27T02:54:20.397Z,12.85
2023-05-27T02:56:46.983Z,12.79
2023-05-27T02:59:13.534Z,12.80
2023-05-27T03:01:40.146Z,12.75
2023-05-27T03:04:06.846Z,12.69
2023-05-27T03:06:33.583Z,12.60
2023-05-27T03:09:00.856Z,12.53
2023-05-27T03:11:27.478Z,12.45
2023-05-27T03:13:54.018Z,12.43
2023-05-27T03:16:20.710Z,12.39
2023-05-27T03:18:47.421Z,12.34
2023-05-27T03:21:14.093Z,12.27
2023-05-27T03:23:40.764Z,12.18
2023-05-27T03:26:07.391Z,12.17
2023-05-27T03:28:33.956Z,12.06
2023-05-27T03:31:00.527Z,11.99
2023-05-27T03:33:27.140Z,11.87
2023-05-27T03:35:53.700Z,11.79
2023-05-27T03:38:20.290Z,11.75
2023-05-27T03:40:46.841Z,11.74
2023-05-27T03:43:13.432Z,11.70
2023-05-27T03:45:40.031Z,11.69
2023-05-27T03:48:06.675Z,11.68
2023-05-27T03:50:34.649Z,11.72
2023-05-27T03:53:01.346Z,11.70
2023-05-27T03:55:28.084Z,11.73
2023-05-27T03:57:54.670Z,11.77
2023-05-27T04:00:21.577Z,11.83
2023-05-27T04:02:48.417Z,11.93
2023-05-27T04:05:17.628Z,12.01
2023-05-27T04:07:44.179Z,12.07
2023-05-27T04:10:11.174Z,12.11
2023-05-27T04:12:37.717Z,12.14
2023-05-27T04:15:04.598Z,12.22
2023-05-27T04:17:31.280Z,12.31
2023-05-27T04:19:57.925Z,12.47
2023-05-27T04:22:24.458Z,12.59
2023-05-27T04:24:54.107Z,12.70
2023-05-27T04:27:20.619Z,12.80
2023-05-27T04:29:48.637Z,12.89
2023-05-27T04:32:15.250Z,13.04
2023-05-27T04:34:42.434Z,13.20
2023-05-27T04:37:11.558Z,13.38
2023-05-27T04:39:41.970Z,13.56
2023-05-27T04:42:10.027Z,13.73
2023-05-27T04:44:36.529Z,13.88
2023-05-27T04:47:03.108Z,14.04
2023-05-27T04:49:29.749Z,14.22
2023-05-27T04:51:56.349Z,14.38
2023-05-27T04:54:23.571Z,14.56
2023-05-27T04:56:52.943Z,14.73
2023-05-27T04:59:22.587Z,14.89
2023-05-27T05:02:07.809Z,14.98
2023-05-27T05:04:34.370Z,15.14
2023-05-27T05:07:01.048Z,15.19
2023-05-27T05:09:27.954Z,15.33
2023-05-27T05:11:54.472Z,15.33
2023-05-27T05:14:20.995Z,15.40
2023-05-27T05:16:48.223Z,15.53
2023-05-27T05:19:14.852Z,15.70
2023-05-27T05:21:41.414Z,15.84
2023-05-27T05:24:08.114Z,15.97
2023-05-27T05:26:34.734Z,16.11
2023-05-27T05:29:01.254Z,16.21
2023-05-27T05:31:28.200Z,16.33
2023-05-27T05:33:54.744Z,16.34
2023-05-27T05:36:22.153Z,16.49
2023-05-27T05:38:48.741Z,16.56
2023-05-27T05:41:15.420Z,16.68
2023-05-27T05:43:41.979Z,16.67
2023-05-27T05:46:08.649Z,16.83
2023-05-27T05:48:35.272Z,16.71
2023-05-27T05:51:02.145Z,16.73
2023-05-27T05:53:30.268Z,16.71
2023-05-27T05:55:56.805Z,16.91
2023-05-27T05:58:23.497Z,16.88
2023-05-27T06:00:50.273Z,16.93
2023-05-27T06:03:17.009Z,16.97
2023-05-27T06:05:43.676Z,16.92
2023-05-27T06:08:10.429Z,16.77
2023-05-27T06:10:37.035Z,16.87
2023-05-27T06:13:04.126Z,17.14
2023-05-27T06:15:31.803Z,16.99
2023-05-27T06:17:58.438Z,17.04
2023-05-27T06:20:25.113Z,17.28
2023-05-27T06:22:51.703Z,17.55
2023-05-27T06:25:18.291Z,17.68
2023-05-27T06:27:44.832Z,17.63
2023-05-27T06:30:11.784Z,17.78
2023-05-27T06:32:38.329Z,17.82
2023-05-27T06:35:05.444Z,17.96
2023-05-27T06:37:31.999Z,18.29
2023-05-27T06:39:58.534Z,18.61
2023-05-27T06:42:25.091Z,18.56
2023-05-27T06:44:51.840Z,18.65
2023-05-27T06:47:18.588Z,18.88
2023-05-27T06:49:45.191Z,19.16
2023-05-27T06:52:14.015Z,19.37
2023-05-27T06:54:41.518Z,19.08
2023-05-27T06:57:08.085Z,18.90
2023-05-27T06:59:35.201Z,19.11
2023-05-27T07:02:01.891Z,19.50
2023-05-27T07:04:28.602Z,19.38
2023-05-27T07:06:55.242Z,19.35
2023-05-27T07:09:22.016Z,19.66
2023-05-27T07:11:48.640Z,19.81
2023-05-27T07:14:15.717Z,19.87
2023-05-27T07:16:42.618Z,19.50
2023-05-27T07:19:09.286Z,19.74
2023-05-27T07:21:35.882Z,20.28
2023-05-27T07:24:05.013Z,20.73
2023-05-27T07:26:32.281Z,21.19
2023-05-27T07:29:01.147Z,21.60
2023-05-27T07:31:28.891Z,21.60
2023-05-27T07:33:55.531Z,21.76
2023-05-27T07:36:22.230Z,21.65
2023-05-27T07:38:48.822Z,22.02
2023-05-27T07:41:15.482Z,21.93
2023-05-27T07:43:42.239Z,22.41
2023-05-27T07:46:08.804Z,24.71
2023-05-27T07:48:35.427Z,27.13
2023-05-27T07:51:02.122Z,27.59
2023-05-27T07:53:28.707Z,27.88
2023-05-27T07:55:55.227Z,28.08
2023-05-27T07:58:21.814Z,29.04
2023-05-27T08:00:48.664Z,28.79
2023-05-27T08:03:15.777Z,28.39
2023-05-27T08:05:42.970Z,27.20
2023-05-27T08:08:09.640Z,25.45
2023-05-27T08:10:36.283Z,24.40
2023-05-27T08:13:02.921Z,24.24
2023-05-27T08:15:29.442Z,24.59
2023-05-27T08:17:56.274Z,25.34
2023-05-27T08:20:23.173Z,25.40
2023-05-27T08:22:49.764Z,25.49
2023-05-27T08:25:17.442Z,26.47
2023-05-27T08:27:55.126Z,27.83
2023-05-27T08:30:22.257Z,27.84
2023-05-27T08:32:50.328Z,30.00
2023-05-27T08:35:19.637Z,31.08
2023-05-27T08:37:46.235Z,30.79
2023-05-27T08:40:15.791Z,29.67
2023-05-27T08:42:42.706Z,30.60
2023-05-27T08:45:12.946Z,32.63
2023-05-27T08:47:40.245Z,31.58
2023-05-27T08:50:08.396Z,30.77
2023-05-27T08:52:48.148Z,31.81
2023-05-27T08:55:20.744Z,32.35
2023-05-27T08:57:52.363Z,32.25
2023-05-27T09:00:20.165Z,31.66
2023-05-27T09:02:47.414Z,31.89
2023-05-27T09:05:15.079Z,33.42
2023-05-27T09:07:41.846Z,33.05
2023-05-27T09:10:08.780Z,33.85
2023-05-27T09:12:36.798Z,33.17
2023-05-27T09:15:06.822Z,33.99
2023-05-27T09:17:33.385Z,34.99
2023-05-27T09:20:00.090Z,35.37
2023-05-27T09:22:30.038Z,35.09
2023-05-27T09:24:57.385Z,34.21
2023-05-27T09:27:32.063Z,35.38
2023-05-27T09:30:07.820Z,33.57
2023-05-27T09:32:34.745Z,32.75
2023-05-27T09:35:02.981Z,32.98
2023-05-27T09:37:35.336Z,32.09
2023-05-27T09:40:09.357Z,31.86
2023-05-27T09:42:44.841Z,33.53
2023-05-27T09:45:20.357Z,34.93
2023-05-27T09:47:54.890Z,33.79
2023-05-27T09:50:22.834Z,32.63
2023-05-27T09:53:05.138Z,32.84
2023-05-27T09:55:36.977Z,33.87
2023-05-27T09:58:04.014Z,34.50
2023-05-27T10:00:31.613Z,33.25
2023-05-27T10:03:01.500Z,32.47
2023-05-27T10:05:29.200Z,31.83
2023-05-27T10:10:25.717Z,33.43
2023-05-27T10:12:55.070Z,34.96
2023-05-27T10:15:28.465Z,34.93
2023-05-27T10:18:00.531Z,33.33
2023-05-27T10:20:38.874Z,34.13
2023-05-27T10:23:22.458Z,34.37
2023-05-27T10:25:49.339Z,33.37
2023-05-27T10:28:33.910Z,34.21
2023-05-27T10:31:11.550Z,35.46
2023-05-27T10:33:49.087Z,35.56
2023-05-27T10:36:17.687Z,36.96
2023-05-27T10:38:55.243Z,34.70
2023-05-27T10:41:23.542Z,34.97
2023-05-27T10:44:01.013Z,35.12
2023-05-27T10:46:28.001Z,35.59
2023-05-27T10:48:54.898Z,34.86
2023-05-27T10:51:32.692Z,34.72
2023-05-27T10:54:23.311Z,35.24
2023-05-27T10:56:53.293Z,35.96
2023-05-27T10:59:24.283Z,36.42
2023-05-27T11:01:54.947Z,35.04
2023-05-27T11:04:22.800Z,35.90
2023-05-27T11:07:04.368Z,35.37
2023-05-27T11:09:32.424Z,35.69
2023-05-27T11:12:06.481Z,34.46
2023-05-27T11:14:33.134Z,35.23
2023-05-27T11:16:59.728Z,35.60
2023-05-27T11:19:26.835Z,32.70
2023-05-27T11:21:53.367Z,32.42
2023-05-27T11:24:21.298Z,34.58
2023-05-27T11:26:48.795Z,35.07
2023-05-27T11:29:15.984Z,35.56
2023-05-27T11:31:48.270Z,35.73
2023-05-27T11:34:15.988Z,35.92
2023-05-27T11:36:46.494Z,35.98
2023-05-27T11:39:19.599Z,35.86
2023-05-27T11:41:56.395Z,35.06
2023-05-27T11:44:26.439Z,36.75
2023-05-27T11:47:03.167Z,34.84
2023-05-27T11:49:29.910Z,34.73
2023-05-27T11:51:57.906Z,36.68
2023-05-27T11:54:29.300Z,35.58
2023-05-27T11:56:57.337Z,36.58
2023-05-27T11:59:24.867Z,36.98
2023-05-27T12:01:52.521Z,37.17
2023-05-27T12:04:19.141Z,37.61
2023-05-27T12:06:46.937Z,37.53
2023-05-27T12:09:13.689Z,34.15
2023-05-27T12:11:40.271Z,35.11
2023-05-27T12:14:06.930Z,34.72
2023-05-27T12:16:33.673Z,33.80
2023-05-27T12:19:01.006Z,32.85
2023-05-27T12:21:27.853Z,30.43
2023-05-27T12:23:56.048Z,29.88
2023-05-27T12:26:23.296Z,27.15
2023-05-27T12:28:49.975Z,26.15
2023-05-27T12:31:17.321Z,25.18
2023-05-27T12:33:43.961Z,25.15
2023-05-27T12:36:12.089Z,24.87
2023-05-27T12:38:38.666Z,25.08
2023-05-27T12:41:05.347Z,25.16
2023-05-27T12:43:31.886Z,24.80
2023-05-27T12:45:59.062Z,24.92
2023-05-27T12:48:25.652Z,25.14
2023-05-27T12:50:52.444Z,25.11
2023-05-27T12:53:18.951Z,24.67
2023-05-27T12:55:46.047Z,24.73
2023-05-27T12:58:12.744Z,24.55
2023-05-27T13:00:39.418Z,24.49
2023-05-27T13:03:06.033Z,24.30
2023-05-27T13:05:32.903Z,23.93
2023-05-27T13:08:05.645Z,23.59
2023-05-27T13:10:32.457Z,23.66
2023-05-27T13:13:01.096Z,23.56
2023-05-27T13:15:28.160Z,23.51
2023-05-27T13:17:55.414Z,23.24
2023-05-27T13:20:24.934Z,23.09
2023-05-27T13:22:52.164Z,23.12
2023-05-27T13:25:18.923Z,23.30
2023-05-27T13:27:48.601Z,23.34
2023-05-27T13:30:15.866Z,23.22
2023-05-27T13:32:44.050Z,22.85
2023-05-27T13:35:12.386Z,22.74
2023-05-27T13:37:42.872Z,22.80
2023-05-27T13:40:10.475Z,22.73
2023-05-27T13:42:37.874Z,22.70
2023-05-27T13:45:05.098Z,22.68
2023-05-27T13:47:32.071Z,22.52
2023-05-27T13:49:58.758Z,22.30
2023-05-27T13:52:25.368Z,22.34
2023-05-27T13:54:51.873Z,22.42
2023-05-27T13:57:18.445Z,22.41
2023-05-27T13:59:44.985Z,22.47
2023-05-27T14:02:11.603Z,22.53
2023-05-27T14:04:38.135Z,22.23
2023-05-27T14:07:04.924Z,22.24
2023-05-27T14:09:31.423Z,22.13
2023-05-27T14:11:58.774Z,21.94
2023-05-27T14:14:25.339Z,21.97
2023-05-27T14:16:51.969Z,21.90
2023-05-27T14:19:18.753Z,22.02
2023-05-27T14:21:46.372Z,22.00
2023-05-27T14:24:16.521Z,21.84
2023-05-27T14:26:44.677Z,21.84
2023-05-27T14:29:11.655Z,22.00
2023-05-27T14:31:38.369Z,22.06
2023-05-27T14:34:05.066Z,21.91
2023-05-27T14:36:31.637Z,21.92
2023-05-27T14:38:58.202Z,21.89
2023-05-27T14:41:24.805Z,21.77
2023-05-27T14:43:55.233Z,21.76
2023-05-27T14:46:22.672Z,21.76
2023-05-27T14:48:49.370Z,21.83
2023-05-27T14:51:16.586Z,21.87
2023-05-27T14:53:43.152Z,21.92
2023-05-27T14:56:09.700Z,22.00
2023-05-27T14:58:36.498Z,21.94
2023-05-27T15:01:03.414Z,21.72
2023-05-27T15:03:31.226Z,21.69
2023-05-27T15:05:59.410Z,21.77
2023-05-27T15:08:26.348Z,21.71
2023-05-27T15:10:53.052Z,21.60
2023-05-27T15:13:20.724Z,21.60
2023-05-27T15:15:47.678Z,21.64
2023-05-27T15:18:14.468Z,21.54
2023-05-27T15:20:41.339Z,21.53
2023-05-27T15:23:07.974Z,21.38
2023-05-27T15:25:34.688Z,21.37
2023-05-27T15:28:01.242Z,21.39
2023-05-27T15:30:27.966Z,21.45
2023-05-27T15:32:54.661Z,21.51
2023-05-27T15:35:21.544Z,21.50
2023-05-27T15:37:48.251Z,21.45
2023-05-27T15:40:14.875Z,21.33
2023-05-27T15:42:41.461Z,21.25
2023-05-27T15:45:08.714Z,21.24
2023-05-27T15:47:35.674Z,21.23
2023-05-27T15:50:03.854Z,21.27
2023-05-27T15:52:30.827Z,21.24
2023-05-27T15:54:57.444Z,21.27
2023-05-27T15:57:24.421Z,21.31
2023-05-27T15:59:51.576Z,21.27
2023-05-27T16:02:18.271Z,21.23
2023-05-27T16:04:45.177Z,21.18
2023-05-27T16:07:11.800Z,21.12
2023-05-27T16:09:39.139Z,21.10
2023-05-27T16:12:06.222Z,21.07
2023-05-27T16:14:32.936Z,21.03
2023-05-27T16:16:59.700Z,21.01
2023-05-27T16:19:27.089Z,21.00
2023-05-27T16:21:53.644Z,20.96
2023-05-27T16:24:20.404Z,20.94
2023-05-27T16:26:46.940Z,20.92
2023-05-27T16:29:13.487Z,20.92
2023-05-27T16:31:40.094Z,20.94
2023-05-27T16:34:08.146Z,20.90
2023-05-27T16:36:34.772Z,20.90
2023-05-27T16:39:01.281Z,20.87
2023-05-27T16:41:27.996Z,20.84
2023-05-27T16:43:54.924Z,20.81
2023-05-27T16:46:21.606Z,20.77
2023-05-27T16:48:49.002Z,20.75
2023-05-27T16:51:15.847Z,20.73
2023-05-27T16:53:42.493Z,20.69
2023-05-27T16:56:09.622Z,20.65
2023-05-27T16:58:36.176Z,20.63
2023-05-27T17:01:03.234Z,20.58
2023-05-27T17:03:30.496Z,20.55
2023-05-27T17:05:58.141Z,20.54
2023-05-27T17:08:25.454Z,20.50
2023-05-27T17:10:52.484Z,20.48
2023-05-27T17:13:19.933Z,20.41
2023-05-27T17:15:47.056Z,20.39
2023-05-27T17:18:13.875Z,20.37
2023-05-27T17:20:40.510Z,20.33
2023-05-27T17:23:07.054Z,20.29
2023-05-27T17:25:33.631Z,20.23
2023-05-27T17:28:00.280Z,20.22
2023-05-27T17:30:26.921Z,20.19
2023-05-27T17:32:53.511Z,20.15
2023-05-27T17:35:20.601Z,20.10
2023-05-27T17:37:47.262Z,20.05
2023-05-27T17:40:13.841Z,20.00
2023-05-27T17:42:40.569Z,19.94
2023-05-27T17:45:07.656Z,19.91
2023-05-27T17:47:34.306Z,19.84
2023-05-27T17:50:00.901Z,19.83
2023-05-27T17:52:29.712Z,19.77
2023-05-27T17:54:56.292Z,19.68
2023-05-27T17:57:22.935Z,19.65
2023-05-27T17:59:49.850Z,19.59
2023-05-27T18:02:17.898Z,19.54
2023-05-27T18:04:44.769Z,19.51
2023-05-27T18:07:11.522Z,19.47
2023-05-27T18:09:40.813Z,19.43
2023-05-27T18:12:10.885Z,19.33
2023-05-27T18:14:37.411Z,19.28
2023-05-27T18:17:06.148Z,19.20
2023-05-27T18:19:33.411Z,19.17
2023-05-27T18:22:00.039Z,19.10
2023-05-27T18:24:26.637Z,19.01
2023-05-27T18:26:54.005Z,18.96
2023-05-27T18:29:20.613Z,18.87
2023-05-27T18:31:47.183Z,18.77
2023-05-27T18:34:15.340Z,18.69
2023-05-27T18:36:42.189Z,18.60
2023-05-27T18:39:08.867Z,18.54
2023-05-27T18:41:35.567Z,18.45
2023-05-27T18:44:02.240Z,18.34
2023-05-27T18:46:28.834Z,18.24
2023-05-27T18:48:55.561Z,18.09
2023-05-27T18:51:22.826Z,17.98
2023-05-27T18:53:49.699Z,17.90
2023-05-27T18:56:16.479Z,17.79
2023-05-27T18:58:43.132Z,17.67
2023-05-27T19:01:09.743Z,17.58
2023-05-27T19:03:36.435Z,17.50
2023-05-27T19:06:03.358Z,17.35
2023-05-27T19:08:29.885Z,17.22
2023-05-27T19:10:56.599Z,17.08
2023-05-27T19:13:23.392Z,16.94
2023-05-27T19:15:50.013Z,16.84
2023-05-27T19:18:17.149Z,16.71
2023-05-27T19:20:44.009Z,16.62
2023-05-27T19:23:10.889Z,16.44
2023-05-27T19:25:37.540Z,16.33
2023-05-27T19:28:04.512Z,16.24
2023-05-27T19:30:31.097Z,16.17
2023-05-27T19:32:57.996Z,16.07
2023-05-27T19:35:24.744Z,16.04
2023-05-27T19:37:51.446Z,15.94
2023-05-27T19:40:18.097Z,15.91
2023-05-27T19:42:44.634Z,15.86
2023-05-27T19:45:11.515Z,15.73
2023-05-27T19:47:38.233Z,15.65
2023-05-27T19:50:05.625Z,15.53
2023-05-27T19:52:32.179Z,15.44
2023-05-27T19:55:00.968Z,15.32
2023-05-27T19:57:28.087Z,15.21
2023-05-27T19:59:54.684Z,15.17
2023-05-27T20:02:21.282Z,15.10
2023-05-27T20:04:47.816Z,15.04
2023-05-27T20:07:14.383Z,14.97
2023-05-27T20:09:41.084Z,14.88
2023-05-27T20:12:07.990Z,14.80
2023-05-27T20:14:34.610Z,14.79
2023-05-27T20:17:01.238Z,14.75
2023-05-27T20:19:27.867Z,14.66
2023-05-27T20:21:54.392Z,14.60
2023-05-27T20:24:20.956Z,14.58
2023-05-27T20:26:47.504Z,14.52
2023-05-27T20:29:14.094Z,14.46
2023-05-27T20:31:40.815Z,14.38
2023-05-27T20:34:07.970Z,14.25
2023-05-27T20:36:34.864Z,14.22
2023-05-27T20:39:01.401Z,14.10
2023-05-27T20:41:28.116Z,13.98
2023-05-27T20:43:59.989Z,13.93
2023-05-27T20:46:28.211Z,13.82
2023-05-27T20:48:56.545Z,13.75
2023-05-27T20:51:24.467Z,13.66
2023-05-27T20:53:52.499Z,13.61
2023-05-27T20:56:19.228Z,13.58
2023-05-27T20:58:46.506Z,13.49
2023-05-27T21:01:13.097Z,13.46
2023-05-27T21:03:40.014Z,13.37
2023-05-27T21:06:07.104Z,13.27
2023-05-27T21:08:33.662Z,13.19
2023-05-27T21:11:00.265Z,13.12
2023-05-27T21:13:26.890Z,13.03
2023-05-27T21:15:53.413Z,12.94
2023-05-27T21:18:19.970Z,12.87
2023-05-27T21:20:46.714Z,12.77
2023-05-27T21:23:13.431Z,12.68
2023-05-27T21:25:40.980Z,12.62
2023-05-27T21:28:07.505Z,12.59
2023-05-27T21:30:34.071Z,12.59
2023-05-27T21:33:01.118Z,12.62
2023-05-27T21:35:27.825Z,12.64
2023-05-27T21:37:54.380Z,12.57
2023-05-27T21:40:21.598Z,12.60
2023-05-27T21:42:48.243Z,12.59
2023-05-27T21:45:14.793Z,12.55
2023-05-27T21:47:41.466Z,12.50
2023-05-27T21:50:08.435Z,12.43
2023-05-27T21:52:35.025Z,12.37
2023-05-27T21:55:01.671Z,12.38
2023-05-27T21:57:28.276Z,12.32
2023-05-27T21:59:57.018Z,12.36
2023-05-27T22:02:24.242Z,12.29
2023-05-27T22:04:51.002Z,12.22
2023-05-27T22:07:17.632Z,12.20
2023-05-27T22:09:45.199Z,12.10
2023-05-27T22:12:13.510Z,12.08
2023-05-27T22:14:40.201Z,12.10
2023-05-27T22:17:07.848Z,12.05
2023-05-27T22:19:34.756Z,12.00
2023-05-27T22:22:01.420Z,11.99
2023-05-27T22:24:28.043Z,12.08
2023-05-27T22:26:54.913Z,12.13
2023-05-27T22:29:22.034Z,12.17
2023-05-27T22:31:48.683Z,12.16
2023-05-27T22:34:15.390Z,12.15
2023-05-27T22:36:41.994Z,12.21
2023-05-27T22:39:10.187Z,12.24
2023-05-27T22:41:37.215Z,12.34
2023-05-27T22:44:04.028Z,12.47
2023-05-27T22:46:31.775Z,12.52
2023-05-27T22:48:58.389Z,12.61
2023-05-27T22:51:26.524Z,12.65
2023-05-27T22:53:53.117Z,12.68
2023-05-27T22:56:19.895Z,12.74
2023-05-27T22:58:46.443Z,12.79
2023-05-27T23:01:13.105Z,12.79
2023-05-27T23:03:39.910Z,12.85
2023-05-27T23:06:06.828Z,12.80
2023-05-27T23:08:33.371Z,12.84
2023-05-27T23:10:59.889Z,12.83
2023-05-27T23:13:26.454Z,12.77
2023-05-27T23:15:53.915Z,12.73
2023-05-27T23:18:20.855Z,12.64
2023-05-27T23:20:47.630Z,12.59
2023-05-27T23:23:14.354Z,12.58
2023-05-27T23:25:40.949Z,12.52
2023-05-27T23:28:07.688Z,12.48
2023-05-27T23:30:34.278Z,12.52
2023-05-27T23:33:01.025Z,12.51
2023-05-27T23:35:27.633Z,12.55
2023-05-27T23:37:54.485Z,12.61
2023-05-27T23:40:21.165Z,12.56
2023-05-27T23:42:49.237Z,12.56
2023-05-27T23:45:16.346Z,12.59
2023-05-27T23:47:42.941Z,12.58
2023-05-27T23:50:10.236Z,12.51
2023-05-27T23:52:36.821Z,12.37
2023-05-27T23:55:04.099Z,12.24
2023-05-27T23:57:30.887Z,12.06
